sensor_id;sensor_type;location;lat;lon;timestamp;P1;durP1;ratioP1;P2;durP2;ratioP2
19643;SDS011;9970;-36.854;174.870;2023-03-23T00:02:30;4.57;;;4.57;;
19643;SDS011;9970;-36.854;174.870;2023-03-23T00:05:02;4.50;;;4.50;;
19643;SDS011;9970;-36.854;174.870;2023-03-23T00:07:36;4.50;;;4.50;;
19643;SDS011;9970;-36.854;174.870;2023-03-23T00:10:08;4.30;;;4.30;;
19643;SDS011;9970;-36.854;174.870;2023-03-23T00:12:39;4.43;;;4.43;;
19643;SDS011;9970;-36.854;174.870;2023-03-23T00:15:10;4.40;;;4.40;;
19643;SDS011;9970;-36.854;174.870;2023-03-23T00:17:42;4.50;;;4.50;;
19643;SDS011;9970;-36.854;174.870;2023-03-23T00:20:13;4.60;;;4.60;;
19643;SDS011;9970;-36.854;174.870;2023-03-23T00:22:44;4.70;;;4.70;;
19643;SDS011;9970;-36.854;174.870;2023-03-23T00:28:35;4.77;;;4.77;;
19643;SDS011;9970;-36.854;174.870;2023-03-23T00:31:09;4.40;;;4.40;;
19643;SDS011;9970;-36.854;174.870;2023-03-23T00:40:05;4.80;;;4.80;;
19643;SDS011;9970;-36.854;174.870;2023-03-23T00:42:43;4.80;;;4.80;;
19643;SDS011;9970;-36.854;174.870;2023-03-23T00:45:15;4.80;;;4.80;;
19643;SDS011;9970;-36.854;174.870;2023-03-23T00:47:46;4.60;;;4.60;;
19643;SDS011;9970;-36.854;174.870;2023-03-23T00:50:17;4.70;;;4.70;;
19643;SDS011;9970;-36.854;174.870;2023-03-23T00:52:48;4.80;;;4.80;;
19643;SDS011;9970;-36.854;174.870;2023-03-23T00:55:19;4.97;;;4.97;;
19643;SDS011;9970;-36.854;174.870;2023-03-23T00:57:50;4.70;;;4.70;;
19643;SDS011;9970;-36.854;174.870;2023-03-23T01:00:21;4.90;;;4.90;;
19643;SDS011;9970;-36.854;174.870;2023-03-23T01:02:52;5.23;;;5.23;;
19643;SDS011;9970;-36.854;174.870;2023-03-23T01:05:22;5.20;;;5.20;;
19643;SDS011;9970;-36.854;174.870;2023-03-23T01:07:54;5.10;;;5.10;;
19643;SDS011;9970;-36.854;174.870;2023-03-23T01:10:25;4.80;;;4.80;;
19643;SDS011;9970;-36.854;174.870;2023-03-23T01:12:55;4.60;;;4.60;;
19643;SDS011;9970;-36.854;174.870;2023-03-23T01:15:27;4.50;;;4.50;;
19643;SDS011;9970;-36.854;174.870;2023-03-23T01:17:58;4.30;;;4.30;;
19643;SDS011;9970;-36.854;174.870;2023-03-23T01:20:29;4.40;;;4.40;;
19643;SDS011;9970;-36.854;174.870;2023-03-23T01:23:00;4.40;;;4.40;;
19643;SDS011;9970;-36.854;174.870;2023-03-23T01:25:31;4.40;;;4.40;;
19643;SDS011;9970;-36.854;174.870;2023-03-23T01:28:03;4.73;;;4.73;;
19643;SDS011;9970;-36.854;174.870;2023-03-23T01:30:36;4.13;;;4.13;;
19643;SDS011;9970;-36.854;174.870;2023-03-23T01:33:07;4.20;;;4.20;;
19643;SDS011;9970;-36.854;174.870;2023-03-23T01:38:56;4.20;;;4.20;;
19643;SDS011;9970;-36.854;174.870;2023-03-23T01:41:31;4.20;;;4.20;;
19643;SDS011;9970;-36.854;174.870;2023-03-23T01:47:04;4.30;;;4.30;;
19643;SDS011;9970;-36.854;174.870;2023-03-23T01:49:47;4.40;;;4.40;;
19643;SDS011;9970;-36.854;174.870;2023-03-23T01:54:57;4.70;;;4.70;;
19643;SDS011;9970;-36.854;174.870;2023-03-23T01:57:28;4.70;;;4.70;;
19643;SDS011;9970;-36.854;174.870;2023-03-23T02:00:02;4.30;;;4.30;;
19643;SDS011;9970;-36.854;174.870;2023-03-23T02:02:42;4.33;;;4.33;;
19643;SDS011;9970;-36.854;174.870;2023-03-23T02:05:17;4.40;;;4.40;;
19643;SDS011;9970;-36.854;174.870;2023-03-23T02:07:47;4.50;;;4.50;;
19643;SDS011;9970;-36.854;174.870;2023-03-23T02:13:31;5.00;;;5.00;;
19643;SDS011;9970;-36.854;174.870;2023-03-23T02:46:09;5.60;;;5.60;;
19643;SDS011;9970;-36.854;174.870;2023-03-23T02:54:55;4.90;;;4.90;;
19643;SDS011;9970;-36.854;174.870;2023-03-23T03:07:38;5.03;;;5.03;;
19643;SDS011;9970;-36.854;174.870;2023-03-23T03:13:42;5.20;;;5.20;;
19643;SDS011;9970;-36.854;174.870;2023-03-23T03:19:54;5.50;;;5.50;;
19643;SDS011;9970;-36.854;174.870;2023-03-23T03:22:29;5.10;;;5.10;;
19643;SDS011;9970;-36.854;174.870;2023-03-23T03:31:11;4.93;;;4.93;;
19643;SDS011;9970;-36.854;174.870;2023-03-23T03:34:16;4.80;;;4.80;;
19643;SDS011;9970;-36.854;174.870;2023-03-23T03:37:18;4.90;;;4.90;;
19643;SDS011;9970;-36.854;174.870;2023-03-23T03:39:58;4.80;;;4.80;;
19643;SDS011;9970;-36.854;174.870;2023-03-23T03:42:28;5.10;;;5.10;;
19643;SDS011;9970;-36.854;174.870;2023-03-23T03:45:15;4.97;;;4.97;;
19643;SDS011;9970;-36.854;174.870;2023-03-23T03:47:51;4.80;;;4.80;;
19643;SDS011;9970;-36.854;174.870;2023-03-23T03:50:54;4.70;;;4.70;;
19643;SDS011;9970;-36.854;174.870;2023-03-23T03:53:39;5.00;;;5.00;;
19643;SDS011;9970;-36.854;174.870;2023-03-23T04:02:21;5.00;;;5.00;;
19643;SDS011;9970;-36.854;174.870;2023-03-23T04:05:10;5.00;;;5.00;;
19643;SDS011;9970;-36.854;174.870;2023-03-23T04:08:03;5.10;;;5.10;;
19643;SDS011;9970;-36.854;174.870;2023-03-23T04:14:18;5.37;;;5.37;;
19643;SDS011;9970;-36.854;174.870;2023-03-23T04:28:29;5.70;;;5.70;;
19643;SDS011;9970;-36.854;174.870;2023-03-23T04:31:26;5.40;;;5.40;;
19643;SDS011;9970;-36.854;174.870;2023-03-23T04:37:13;5.20;;;5.20;;
19643;SDS011;9970;-36.854;174.870;2023-03-23T04:43:17;5.60;;;5.60;;
19643;SDS011;9970;-36.854;174.870;2023-03-23T04:48:59;5.20;;;5.20;;
19643;SDS011;9970;-36.854;174.870;2023-03-23T04:51:37;5.10;;;5.10;;
19643;SDS011;9970;-36.854;174.870;2023-03-23T05:00:16;4.90;;;4.90;;
19643;SDS011;9970;-36.854;174.870;2023-03-23T05:03:09;5.00;;;5.00;;
19643;SDS011;9970;-36.854;174.870;2023-03-23T05:06:25;4.70;;;4.70;;
19643;SDS011;9970;-36.854;174.870;2023-03-23T05:12:38;4.70;;;4.70;;
19643;SDS011;9970;-36.854;174.870;2023-03-23T05:15:44;4.70;;;4.70;;
19643;SDS011;9970;-36.854;174.870;2023-03-23T05:18:23;4.70;;;4.70;;
19643;SDS011;9970;-36.854;174.870;2023-03-23T05:21:19;4.57;;;4.57;;
19643;SDS011;9970;-36.854;174.870;2023-03-23T05:29:10;4.50;;;4.50;;
19643;SDS011;9970;-36.854;174.870;2023-03-23T05:31:41;4.80;;;4.80;;
19643;SDS011;9970;-36.854;174.870;2023-03-23T05:34:13;5.00;;;5.00;;
19643;SDS011;9970;-36.854;174.870;2023-03-23T05:36:44;4.80;;;4.80;;
19643;SDS011;9970;-36.854;174.870;2023-03-23T05:39:14;4.43;;;4.43;;
19643;SDS011;9970;-36.854;174.870;2023-03-23T05:41:45;4.40;;;4.40;;
19643;SDS011;9970;-36.854;174.870;2023-03-23T05:44:16;4.40;;;4.40;;
19643;SDS011;9970;-36.854;174.870;2023-03-23T05:46:46;4.47;;;4.47;;
19643;SDS011;9970;-36.854;174.870;2023-03-23T05:49:17;4.40;;;4.40;;
19643;SDS011;9970;-36.854;174.870;2023-03-23T05:51:48;4.80;;;4.80;;
19643;SDS011;9970;-36.854;174.870;2023-03-23T05:54:18;4.90;;;4.90;;
19643;SDS011;9970;-36.854;174.870;2023-03-23T05:56:49;4.50;;;4.50;;
19643;SDS011;9970;-36.854;174.870;2023-03-23T05:59:21;4.60;;;4.60;;
19643;SDS011;9970;-36.854;174.870;2023-03-23T06:01:51;4.70;;;4.70;;
19643;SDS011;9970;-36.854;174.870;2023-03-23T06:04:22;4.83;;;4.83;;
19643;SDS011;9970;-36.854;174.870;2023-03-23T06:06:54;4.60;;;4.60;;
19643;SDS011;9970;-36.854;174.870;2023-03-23T06:09:25;4.17;;;4.17;;
19643;SDS011;9970;-36.854;174.870;2023-03-23T06:11:55;4.40;;;4.40;;
19643;SDS011;9970;-36.854;174.870;2023-03-23T06:14:29;4.50;;;4.50;;
19643;SDS011;9970;-36.854;174.870;2023-03-23T06:17:01;4.30;;;4.30;;
19643;SDS011;9970;-36.854;174.870;2023-03-23T06:19:29;4.40;;;4.40;;
19643;SDS011;9970;-36.854;174.870;2023-03-23T06:22:01;4.40;;;4.40;;
19643;SDS011;9970;-36.854;174.870;2023-03-23T06:24:32;4.40;;;4.40;;
19643;SDS011;9970;-36.854;174.870;2023-03-23T06:27:03;4.70;;;4.70;;
19643;SDS011;9970;-36.854;174.870;2023-03-23T06:29:34;4.50;;;4.50;;
19643;SDS011;9970;-36.854;174.870;2023-03-23T06:32:05;4.70;;;4.70;;
19643;SDS011;9970;-36.854;174.870;2023-03-23T06:34:35;5.00;;;5.00;;
19643;SDS011;9970;-36.854;174.870;2023-03-23T06:37:08;4.70;;;4.70;;
19643;SDS011;9970;-36.854;174.870;2023-03-23T06:39:41;4.70;;;4.70;;
19643;SDS011;9970;-36.854;174.870;2023-03-23T06:42:12;4.80;;;4.80;;
19643;SDS011;9970;-36.854;174.870;2023-03-23T06:44:44;4.70;;;4.70;;
19643;SDS011;9970;-36.854;174.870;2023-03-23T06:47:14;4.57;;;4.57;;
19643;SDS011;9970;-36.854;174.870;2023-03-23T06:49:45;4.50;;;4.50;;
19643;SDS011;9970;-36.854;174.870;2023-03-23T06:52:18;4.70;;;4.70;;
19643;SDS011;9970;-36.854;174.870;2023-03-23T06:54:50;4.70;;;4.70;;
19643;SDS011;9970;-36.854;174.870;2023-03-23T06:57:20;4.60;;;4.60;;
19643;SDS011;9970;-36.854;174.870;2023-03-23T06:59:54;4.40;;;4.40;;
19643;SDS011;9970;-36.854;174.870;2023-03-23T07:02:24;4.40;;;4.40;;
19643;SDS011;9970;-36.854;174.870;2023-03-23T07:04:58;4.23;;;4.23;;
19643;SDS011;9970;-36.854;174.870;2023-03-23T07:07:33;4.40;;;4.40;;
19643;SDS011;9970;-36.854;174.870;2023-03-23T07:10:04;4.30;;;4.30;;
19643;SDS011;9970;-36.854;174.870;2023-03-23T07:12:36;4.40;;;4.40;;
19643;SDS011;9970;-36.854;174.870;2023-03-23T07:15:08;4.80;;;4.80;;
19643;SDS011;9970;-36.854;174.870;2023-03-23T07:17:42;4.83;;;4.83;;
19643;SDS011;9970;-36.854;174.870;2023-03-23T07:20:16;4.70;;;4.70;;
19643;SDS011;9970;-36.854;174.870;2023-03-23T07:22:47;4.50;;;4.50;;
19643;SDS011;9970;-36.854;174.870;2023-03-23T07:25:17;5.60;;;5.60;;
19643;SDS011;9970;-36.854;174.870;2023-03-23T07:27:48;5.00;;;5.00;;
19643;SDS011;9970;-36.854;174.870;2023-03-23T07:30:19;5.10;;;5.10;;
19643;SDS011;9970;-36.854;174.870;2023-03-23T07:32:50;5.00;;;5.00;;
19643;SDS011;9970;-36.854;174.870;2023-03-23T07:35:21;4.80;;;4.80;;
19643;SDS011;9970;-36.854;174.870;2023-03-23T07:37:52;4.70;;;4.70;;
19643;SDS011;9970;-36.854;174.870;2023-03-23T07:40:23;4.70;;;4.70;;
19643;SDS011;9970;-36.854;174.870;2023-03-23T07:42:55;4.70;;;4.70;;
19643;SDS011;9970;-36.854;174.870;2023-03-23T07:45:27;4.90;;;4.90;;
19643;SDS011;9970;-36.854;174.870;2023-03-23T07:47:58;4.90;;;4.90;;
19643;SDS011;9970;-36.854;174.870;2023-03-23T07:50:28;4.80;;;4.80;;
19643;SDS011;9970;-36.854;174.870;2023-03-23T07:53:00;4.90;;;4.90;;
19643;SDS011;9970;-36.854;174.870;2023-03-23T07:55:30;4.90;;;4.90;;
19643;SDS011;9970;-36.854;174.870;2023-03-23T07:58:01;5.00;;;5.00;;
19643;SDS011;9970;-36.854;174.870;2023-03-23T08:00:32;5.00;;;5.00;;
19643;SDS011;9970;-36.854;174.870;2023-03-23T08:03:04;4.80;;;4.80;;
19643;SDS011;9970;-36.854;174.870;2023-03-23T08:05:35;5.10;;;5.10;;
19643;SDS011;9970;-36.854;174.870;2023-03-23T08:08:05;5.00;;;5.00;;
19643;SDS011;9970;-36.854;174.870;2023-03-23T08:10:36;4.60;;;4.60;;
19643;SDS011;9970;-36.854;174.870;2023-03-23T08:13:07;4.57;;;4.57;;
19643;SDS011;9970;-36.854;174.870;2023-03-23T08:15:37;4.50;;;4.50;;
19643;SDS011;9970;-36.854;174.870;2023-03-23T08:18:08;4.73;;;4.73;;
19643;SDS011;9970;-36.854;174.870;2023-03-23T08:20:38;4.80;;;4.80;;
19643;SDS011;9970;-36.854;174.870;2023-03-23T08:23:09;4.80;;;4.80;;
19643;SDS011;9970;-36.854;174.870;2023-03-23T08:25:41;4.70;;;4.70;;
19643;SDS011;9970;-36.854;174.870;2023-03-23T08:28:13;4.80;;;4.80;;
19643;SDS011;9970;-36.854;174.870;2023-03-23T08:30:45;4.90;;;4.90;;
19643;SDS011;9970;-36.854;174.870;2023-03-23T08:33:16;5.07;;;5.07;;
19643;SDS011;9970;-36.854;174.870;2023-03-23T08:35:55;4.93;;;4.93;;
19643;SDS011;9970;-36.854;174.870;2023-03-23T08:38:27;4.60;;;4.60;;
19643;SDS011;9970;-36.854;174.870;2023-03-23T08:40:58;4.90;;;4.90;;
19643;SDS011;9970;-36.854;174.870;2023-03-23T08:43:33;4.70;;;4.70;;
19643;SDS011;9970;-36.854;174.870;2023-03-23T08:46:03;4.60;;;4.60;;
19643;SDS011;9970;-36.854;174.870;2023-03-23T08:48:35;4.83;;;4.83;;
19643;SDS011;9970;-36.854;174.870;2023-03-23T08:51:06;5.00;;;5.00;;
19643;SDS011;9970;-36.854;174.870;2023-03-23T08:53:37;5.00;;;5.00;;
19643;SDS011;9970;-36.854;174.870;2023-03-23T08:56:09;4.73;;;4.73;;
19643;SDS011;9970;-36.854;174.870;2023-03-23T08:58:40;5.00;;;5.00;;
19643;SDS011;9970;-36.854;174.870;2023-03-23T09:01:11;5.00;;;5.00;;
19643;SDS011;9970;-36.854;174.870;2023-03-23T09:03:42;4.77;;;4.77;;
19643;SDS011;9970;-36.854;174.870;2023-03-23T09:06:13;4.50;;;4.50;;
19643;SDS011;9970;-36.854;174.870;2023-03-23T09:08:43;4.60;;;4.60;;
19643;SDS011;9970;-36.854;174.870;2023-03-23T09:11:14;4.70;;;4.70;;
19643;SDS011;9970;-36.854;174.870;2023-03-23T09:13:45;4.90;;;4.90;;
19643;SDS011;9970;-36.854;174.870;2023-03-23T09:16:16;4.80;;;4.80;;
19643;SDS011;9970;-36.854;174.870;2023-03-23T09:18:46;4.73;;;4.73;;
19643;SDS011;9970;-36.854;174.870;2023-03-23T09:21:17;4.70;;;4.70;;
19643;SDS011;9970;-36.854;174.870;2023-03-23T09:23:48;4.80;;;4.80;;
19643;SDS011;9970;-36.854;174.870;2023-03-23T09:26:19;4.80;;;4.80;;
19643;SDS011;9970;-36.854;174.870;2023-03-23T09:28:50;4.90;;;4.90;;
19643;SDS011;9970;-36.854;174.870;2023-03-23T09:31:20;5.10;;;5.10;;
19643;SDS011;9970;-36.854;174.870;2023-03-23T09:33:53;5.40;;;5.40;;
19643;SDS011;9970;-36.854;174.870;2023-03-23T09:36:26;5.20;;;5.20;;
19643;SDS011;9970;-36.854;174.870;2023-03-23T09:38:57;5.00;;;5.00;;
19643;SDS011;9970;-36.854;174.870;2023-03-23T09:44:27;5.10;;;5.10;;
19643;SDS011;9970;-36.854;174.870;2023-03-23T09:47:20;5.20;;;5.20;;
19643;SDS011;9970;-36.854;174.870;2023-03-23T09:52:34;4.80;;;4.80;;
19643;SDS011;9970;-36.854;174.870;2023-03-23T09:55:00;4.90;;;4.90;;
19643;SDS011;9970;-36.854;174.870;2023-03-23T09:57:42;4.90;;;4.90;;
19643;SDS011;9970;-36.854;174.870;2023-03-23T10:03:10;5.37;;;5.37;;
19643;SDS011;9970;-36.854;174.870;2023-03-23T10:05:46;6.00;;;6.00;;
19643;SDS011;9970;-36.854;174.870;2023-03-23T10:08:21;4.93;;;4.93;;
19643;SDS011;9970;-36.854;174.870;2023-03-23T10:16:54;4.30;;;4.30;;
19643;SDS011;9970;-36.854;174.870;2023-03-23T10:22:09;4.37;;;4.37;;
19643;SDS011;9970;-36.854;174.870;2023-03-23T10:24:39;4.57;;;4.57;;
19643;SDS011;9970;-36.854;174.870;2023-03-23T10:27:30;4.70;;;4.70;;
19643;SDS011;9970;-36.854;174.870;2023-03-23T10:32:52;4.80;;;4.80;;
19643;SDS011;9970;-36.854;174.870;2023-03-23T10:35:29;4.50;;;4.50;;
19643;SDS011;9970;-36.854;174.870;2023-03-23T10:38:00;4.60;;;4.60;;
19643;SDS011;9970;-36.854;174.870;2023-03-23T10:40:43;4.70;;;4.70;;
19643;SDS011;9970;-36.854;174.870;2023-03-23T10:43:07;4.70;;;4.70;;
19643;SDS011;9970;-36.854;174.870;2023-03-23T10:45:38;4.60;;;4.60;;
19643;SDS011;9970;-36.854;174.870;2023-03-23T10:50:50;4.60;;;4.60;;
19643;SDS011;9970;-36.854;174.870;2023-03-23T10:53:23;4.70;;;4.70;;
19643;SDS011;9970;-36.854;174.870;2023-03-23T10:55:55;4.40;;;4.40;;
19643;SDS011;9970;-36.854;174.870;2023-03-23T10:58:27;4.47;;;4.47;;
19643;SDS011;9970;-36.854;174.870;2023-03-23T11:00:59;4.40;;;4.40;;
19643;SDS011;9970;-36.854;174.870;2023-03-23T11:03:37;4.60;;;4.60;;
19643;SDS011;9970;-36.854;174.870;2023-03-23T11:06:10;4.50;;;4.50;;
19643;SDS011;9970;-36.854;174.870;2023-03-23T11:09:16;4.43;;;4.43;;
19643;SDS011;9970;-36.854;174.870;2023-03-23T11:11:27;4.63;;;4.63;;
19643;SDS011;9970;-36.854;174.870;2023-03-23T11:14:15;4.40;;;4.40;;
19643;SDS011;9970;-36.854;174.870;2023-03-23T11:16:58;4.50;;;4.50;;
19643;SDS011;9970;-36.854;174.870;2023-03-23T11:19:26;4.60;;;4.60;;
19643;SDS011;9970;-36.854;174.870;2023-03-23T11:22:04;4.40;;;4.40;;
19643;SDS011;9970;-36.854;174.870;2023-03-23T11:24:45;4.50;;;4.50;;
19643;SDS011;9970;-36.854;174.870;2023-03-23T11:27:11;4.40;;;4.40;;
19643;SDS011;9970;-36.854;174.870;2023-03-23T11:32:31;4.40;;;4.40;;
19643;SDS011;9970;-36.854;174.870;2023-03-23T11:35:07;4.60;;;4.60;;
19643;SDS011;9970;-36.854;174.870;2023-03-23T11:37:42;4.70;;;4.70;;
19643;SDS011;9970;-36.854;174.870;2023-03-23T11:40:16;4.70;;;4.70;;
19643;SDS011;9970;-36.854;174.870;2023-03-23T11:42:49;4.73;;;4.73;;
19643;SDS011;9970;-36.854;174.870;2023-03-23T11:45:38;4.80;;;4.80;;
19643;SDS011;9970;-36.854;174.870;2023-03-23T11:48:43;4.70;;;4.70;;
19643;SDS011;9970;-36.854;174.870;2023-03-23T11:51:08;4.60;;;4.60;;
19643;SDS011;9970;-36.854;174.870;2023-03-23T11:56:35;4.70;;;4.70;;
19643;SDS011;9970;-36.854;174.870;2023-03-23T11:59:26;4.70;;;4.70;;
19643;SDS011;9970;-36.854;174.870;2023-03-23T12:12:59;4.80;;;4.80;;
19643;SDS011;9970;-36.854;174.870;2023-03-23T12:23:38;4.93;;;4.93;;
19643;SDS011;9970;-36.854;174.870;2023-03-23T12:29:04;4.50;;;4.50;;
19643;SDS011;9970;-36.854;174.870;2023-03-23T12:31:36;4.80;;;4.80;;
19643;SDS011;9970;-36.854;174.870;2023-03-23T12:34:39;4.80;;;4.80;;
19643;SDS011;9970;-36.854;174.870;2023-03-23T12:42:43;5.00;;;5.00;;
19643;SDS011;9970;-36.854;174.870;2023-03-23T12:45:17;4.80;;;4.80;;
19643;SDS011;9970;-36.854;174.870;2023-03-23T12:48:00;5.00;;;5.00;;
19643;SDS011;9970;-36.854;174.870;2023-03-23T12:50:38;4.97;;;4.97;;
19643;SDS011;9970;-36.854;174.870;2023-03-23T12:53:13;5.10;;;5.10;;
19643;SDS011;9970;-36.854;174.870;2023-03-23T12:55:47;5.10;;;5.10;;
19643;SDS011;9970;-36.854;174.870;2023-03-23T12:58:20;5.00;;;5.00;;
19643;SDS011;9970;-36.854;174.870;2023-03-23T13:06:19;4.80;;;4.80;;
19643;SDS011;9970;-36.854;174.870;2023-03-23T13:08:55;4.60;;;4.60;;
19643;SDS011;9970;-36.854;174.870;2023-03-23T13:11:36;4.60;;;4.60;;
19643;SDS011;9970;-36.854;174.870;2023-03-23T13:14:11;4.90;;;4.90;;
19643;SDS011;9970;-36.854;174.870;2023-03-23T13:22:23;4.70;;;4.70;;
19643;SDS011;9970;-36.854;174.870;2023-03-23T13:24:55;4.90;;;4.90;;
19643;SDS011;9970;-36.854;174.870;2023-03-23T13:27:26;4.80;;;4.80;;
19643;SDS011;9970;-36.854;174.870;2023-03-23T13:29:58;5.10;;;5.10;;
19643;SDS011;9970;-36.854;174.870;2023-03-23T13:35:11;4.87;;;4.87;;
19643;SDS011;9970;-36.854;174.870;2023-03-23T13:37:47;5.00;;;5.00;;
19643;SDS011;9970;-36.854;174.870;2023-03-23T13:40:23;4.80;;;4.80;;
19643;SDS011;9970;-36.854;174.870;2023-03-23T13:42:52;5.00;;;5.00;;
19643;SDS011;9970;-36.854;174.870;2023-03-23T13:50:58;4.70;;;4.70;;
19643;SDS011;9970;-36.854;174.870;2023-03-23T13:53:46;4.40;;;4.40;;
19643;SDS011;9970;-36.854;174.870;2023-03-23T13:56:31;4.50;;;4.50;;
19643;SDS011;9970;-36.854;174.870;2023-03-23T13:59:06;4.60;;;4.60;;
19643;SDS011;9970;-36.854;174.870;2023-03-23T14:01:45;4.50;;;4.50;;
19643;SDS011;9970;-36.854;174.870;2023-03-23T14:04:16;4.40;;;4.40;;
19643;SDS011;9970;-36.854;174.870;2023-03-23T14:06:47;4.30;;;4.30;;
19643;SDS011;9970;-36.854;174.870;2023-03-23T14:09:22;4.50;;;4.50;;
19643;SDS011;9970;-36.854;174.870;2023-03-23T14:11:55;4.50;;;4.50;;
19643;SDS011;9970;-36.854;174.870;2023-03-23T14:14:27;4.50;;;4.50;;
19643;SDS011;9970;-36.854;174.870;2023-03-23T14:17:16;4.40;;;4.40;;
19643;SDS011;9970;-36.854;174.870;2023-03-23T14:19:56;4.43;;;4.43;;
19643;SDS011;9970;-36.854;174.870;2023-03-23T14:22:31;4.10;;;4.10;;
19643;SDS011;9970;-36.854;174.870;2023-03-23T14:25:13;4.30;;;4.30;;
19643;SDS011;9970;-36.854;174.870;2023-03-23T14:27:45;4.40;;;4.40;;
19643;SDS011;9970;-36.854;174.870;2023-03-23T14:30:16;4.60;;;4.60;;
19643;SDS011;9970;-36.854;174.870;2023-03-23T14:32:48;4.50;;;4.50;;
19643;SDS011;9970;-36.854;174.870;2023-03-23T14:35:22;4.50;;;4.50;;
19643;SDS011;9970;-36.854;174.870;2023-03-23T14:37:58;4.57;;;4.57;;
19643;SDS011;9970;-36.854;174.870;2023-03-23T14:40:29;4.63;;;4.63;;
19643;SDS011;9970;-36.854;174.870;2023-03-23T14:43:01;4.40;;;4.40;;
19643;SDS011;9970;-36.854;174.870;2023-03-23T14:45:33;4.50;;;4.50;;
19643;SDS011;9970;-36.854;174.870;2023-03-23T14:48:05;4.50;;;4.50;;
19643;SDS011;9970;-36.854;174.870;2023-03-23T14:50:38;4.20;;;4.20;;
19643;SDS011;9970;-36.854;174.870;2023-03-23T14:53:15;4.27;;;4.27;;
19643;SDS011;9970;-36.854;174.870;2023-03-23T14:55:54;4.40;;;4.40;;
19643;SDS011;9970;-36.854;174.870;2023-03-23T14:58:26;4.43;;;4.43;;
19643;SDS011;9970;-36.854;174.870;2023-03-23T15:03:31;4.20;;;4.20;;
19643;SDS011;9970;-36.854;174.870;2023-03-23T15:06:03;4.40;;;4.40;;
19643;SDS011;9970;-36.854;174.870;2023-03-23T15:08:34;4.23;;;4.23;;
19643;SDS011;9970;-36.854;174.870;2023-03-23T15:11:10;4.30;;;4.30;;
19643;SDS011;9970;-36.854;174.870;2023-03-23T15:13:44;4.40;;;4.40;;
19643;SDS011;9970;-36.854;174.870;2023-03-23T15:16:22;4.20;;;4.20;;
19643;SDS011;9970;-36.854;174.870;2023-03-23T15:18:59;4.10;;;4.10;;
19643;SDS011;9970;-36.854;174.870;2023-03-23T15:21:33;4.13;;;4.13;;
19643;SDS011;9970;-36.854;174.870;2023-03-23T15:24:18;3.90;;;3.90;;
19643;SDS011;9970;-36.854;174.870;2023-03-23T15:26:50;3.90;;;3.90;;
19643;SDS011;9970;-36.854;174.870;2023-03-23T15:29:21;4.17;;;4.17;;
19643;SDS011;9970;-36.854;174.870;2023-03-23T15:31:57;4.10;;;4.10;;
19643;SDS011;9970;-36.854;174.870;2023-03-23T15:34:36;4.10;;;4.10;;
19643;SDS011;9970;-36.854;174.870;2023-03-23T15:37:27;4.00;;;4.00;;
19643;SDS011;9970;-36.854;174.870;2023-03-23T15:39:55;4.30;;;4.30;;
19643;SDS011;9970;-36.854;174.870;2023-03-23T15:42:28;4.20;;;4.20;;
19643;SDS011;9970;-36.854;174.870;2023-03-23T15:47:46;4.30;;;4.30;;
19643;SDS011;9970;-36.854;174.870;2023-03-23T15:50:32;4.40;;;4.40;;
19643;SDS011;9970;-36.854;174.870;2023-03-23T15:52:56;4.40;;;4.40;;
19643;SDS011;9970;-36.854;174.870;2023-03-23T15:55:35;4.10;;;4.10;;
19643;SDS011;9970;-36.854;174.870;2023-03-23T15:58:08;4.40;;;4.40;;
19643;SDS011;9970;-36.854;174.870;2023-03-23T16:00:44;4.27;;;4.27;;
19643;SDS011;9970;-36.854;174.870;2023-03-23T16:03:20;4.27;;;4.27;;
19643;SDS011;9970;-36.854;174.870;2023-03-23T16:06:05;4.10;;;4.10;;
19643;SDS011;9970;-36.854;174.870;2023-03-23T16:08:33;3.90;;;3.90;;
19643;SDS011;9970;-36.854;174.870;2023-03-23T16:11:13;3.80;;;3.80;;
19643;SDS011;9970;-36.854;174.870;2023-03-23T16:13:42;3.80;;;3.80;;
19643;SDS011;9970;-36.854;174.870;2023-03-23T16:16:16;3.80;;;3.80;;
19643;SDS011;9970;-36.854;174.870;2023-03-23T16:18:50;4.30;;;4.30;;
19643;SDS011;9970;-36.854;174.870;2023-03-23T16:21:23;3.70;;;3.70;;
19643;SDS011;9970;-36.854;174.870;2023-03-23T16:23:57;3.90;;;3.90;;
19643;SDS011;9970;-36.854;174.870;2023-03-23T16:26:30;3.80;;;3.80;;
19643;SDS011;9970;-36.854;174.870;2023-03-23T16:29:08;3.80;;;3.80;;
19643;SDS011;9970;-36.854;174.870;2023-03-23T16:31:42;3.60;;;3.60;;
19643;SDS011;9970;-36.854;174.870;2023-03-23T16:34:15;3.90;;;3.90;;
19643;SDS011;9970;-36.854;174.870;2023-03-23T16:36:48;3.80;;;3.80;;
19643;SDS011;9970;-36.854;174.870;2023-03-23T16:39:26;3.80;;;3.80;;
19643;SDS011;9970;-36.854;174.870;2023-03-23T16:41:59;3.90;;;3.90;;
19643;SDS011;9970;-36.854;174.870;2023-03-23T16:44:32;3.80;;;3.80;;
19643;SDS011;9970;-36.854;174.870;2023-03-23T16:47:06;3.77;;;3.77;;
19643;SDS011;9970;-36.854;174.870;2023-03-23T16:49:39;3.90;;;3.90;;
19643;SDS011;9970;-36.854;174.870;2023-03-23T16:52:12;3.80;;;3.80;;
19643;SDS011;9970;-36.854;174.870;2023-03-23T16:54:45;3.80;;;3.80;;
19643;SDS011;9970;-36.854;174.870;2023-03-23T16:57:18;3.90;;;3.90;;
19643;SDS011;9970;-36.854;174.870;2023-03-23T16:59:51;3.70;;;3.70;;
19643;SDS011;9970;-36.854;174.870;2023-03-23T17:02:26;3.70;;;3.70;;
19643;SDS011;9970;-36.854;174.870;2023-03-23T17:04:59;3.60;;;3.60;;
19643;SDS011;9970;-36.854;174.870;2023-03-23T17:07:32;3.50;;;3.50;;
19643;SDS011;9970;-36.854;174.870;2023-03-23T17:10:05;3.87;;;3.87;;
19643;SDS011;9970;-36.854;174.870;2023-03-23T17:12:39;3.70;;;3.70;;
19643;SDS011;9970;-36.854;174.870;2023-03-23T17:15:15;3.70;;;3.70;;
19643;SDS011;9970;-36.854;174.870;2023-03-23T17:17:49;3.50;;;3.50;;
19643;SDS011;9970;-36.854;174.870;2023-03-23T17:20:25;3.50;;;3.50;;
19643;SDS011;9970;-36.854;174.870;2023-03-23T17:23:03;3.50;;;3.50;;
19643;SDS011;9970;-36.854;174.870;2023-03-23T17:25:32;3.43;;;3.43;;
19643;SDS011;9970;-36.854;174.870;2023-03-23T17:28:05;3.60;;;3.60;;
19643;SDS011;9970;-36.854;174.870;2023-03-23T17:30:39;3.60;;;3.60;;
19643;SDS011;9970;-36.854;174.870;2023-03-23T17:33:12;3.50;;;3.50;;
19643;SDS011;9970;-36.854;174.870;2023-03-23T17:35:46;3.60;;;3.60;;
19643;SDS011;9970;-36.854;174.870;2023-03-23T17:38:24;3.40;;;3.40;;
19643;SDS011;9970;-36.854;174.870;2023-03-23T17:40:57;3.10;;;3.10;;
19643;SDS011;9970;-36.854;174.870;2023-03-23T17:43:32;3.10;;;3.10;;
19643;SDS011;9970;-36.854;174.870;2023-03-23T17:46:07;3.10;;;3.10;;
19643;SDS011;9970;-36.854;174.870;2023-03-23T17:48:41;3.00;;;3.00;;
19643;SDS011;9970;-36.854;174.870;2023-03-23T17:51:14;2.90;;;2.90;;
19643;SDS011;9970;-36.854;174.870;2023-03-23T17:53:47;2.90;;;2.90;;
19643;SDS011;9970;-36.854;174.870;2023-03-23T17:56:20;2.80;;;2.80;;
19643;SDS011;9970;-36.854;174.870;2023-03-23T17:58:53;3.00;;;3.00;;
19643;SDS011;9970;-36.854;174.870;2023-03-23T18:01:26;3.20;;;3.20;;
19643;SDS011;9970;-36.854;174.870;2023-03-23T18:04:04;3.00;;;3.00;;
19643;SDS011;9970;-36.854;174.870;2023-03-23T18:06:33;3.10;;;3.10;;
19643;SDS011;9970;-36.854;174.870;2023-03-23T18:09:09;2.97;;;2.97;;
19643;SDS011;9970;-36.854;174.870;2023-03-23T18:11:42;2.90;;;2.90;;
19643;SDS011;9970;-36.854;174.870;2023-03-23T18:14:19;3.00;;;3.00;;
19643;SDS011;9970;-36.854;174.870;2023-03-23T18:16:52;3.00;;;3.00;;
19643;SDS011;9970;-36.854;174.870;2023-03-23T18:19:25;3.10;;;3.10;;
19643;SDS011;9970;-36.854;174.870;2023-03-23T18:21:58;2.80;;;2.80;;
19643;SDS011;9970;-36.854;174.870;2023-03-23T18:24:32;2.90;;;2.90;;
19643;SDS011;9970;-36.854;174.870;2023-03-23T18:27:05;3.00;;;3.00;;
19643;SDS011;9970;-36.854;174.870;2023-03-23T18:29:38;2.80;;;2.80;;
19643;SDS011;9970;-36.854;174.870;2023-03-23T18:32:11;2.60;;;2.60;;